Time;durP1;ratioP1;P1;durP2;ratioP2;P2;SDS_P1;SDS_P2;PMS_P1;PMS_P2;Temp;Humidity;BMP_temperature;BMP_pressure;BME280_temperature;BME280_humidity;BME280_pressure;Samples;Min_cycle;Max_cycle;Signal;HPM_P1;HPM_P2
2022/07/16 00:03:32;;;;;;;1999.90;999.90;;;;;;;10.08;100.00;99984.94;5044042;28;20053;-52
2022/07/16 00:06:17;;;;;;;1999.90;999.90;;;;;;;10.07;100.00;99981.44;5043728;28;20041;-52
2022/07/16 00:09:01;;;;;;;1999.90;999.90;;;;;;;10.17;100.00;99982.13;5043307;28;20045;-53
2022/07/16 00:11:45;;;;;;;1999.90;999.90;;;;;;;10.16;100.00;99982.16;5044158;28;20049;-52
2022/07/16 00:14:30;;;;;;;1999.90;999.90;;;;;;;10.09;100.00;99972.69;5042978;28;20045;-52
2022/07/16 00:17:14;;;;;;;1999.90;999.90;;;;;;;10.15;100.00;99988.28;5043960;28;20060;-52
2022/07/16 00:19:58;;;;;;;1999.90;999.90;;;;;;;10.17;100.00;99983.84;5041583;28;20056;-52
2022/07/16 00:22:43;;;;;;;1999.90;999.90;;;;;;;10.19;100.00;99982.09;5041658;28;20053;-52
2022/07/16 00:25:27;;;;;;;1999.90;999.90;;;;;;;10.16;100.00;99983.00;5042008;28;20053;-52
2022/07/16 00:28:11;;;;;;;1999.90;999.90;;;;;;;10.07;100.00;99977.94;5043388;28;20045;-52
2022/07/16 00:30:56;;;;;;;1999.90;999.90;;;;;;;10.20;100.00;99984.66;5043733;28;20128;-52
2022/07/16 00:33:40;;;;;;;1999.90;999.90;;;;;;;10.06;100.00;99966.63;5042909;28;20064;-52
2022/07/16 00:36:25;;;;;;;1999.90;999.90;;;;;;;10.23;100.00;99981.13;5041662;28;20049;-52
2022/07/16 00:39:11;;;;;;;1999.90;999.90;;;;;;;10.22;100.00;99974.16;5042229;28;20041;-53
2022/07/16 00:41:55;;;;;;;1999.90;999.90;;;;;;;10.16;100.00;99969.91;5041964;28;20053;-52
2022/07/16 00:44:40;;;;;;;1999.90;999.90;;;;;;;10.14;100.00;99971.72;5042296;28;20041;-52
2022/07/16 00:47:25;;;;;;;1999.90;999.90;;;;;;;10.29;100.00;99973.16;5042595;28;20053;-52
2022/07/16 00:50:10;;;;;;;1999.90;999.90;;;;;;;10.26;100.00;99968.00;5041760;28;20037;-52
2022/07/16 00:52:54;;;;;;;1999.90;999.90;;;;;;;10.14;100.00;99968.22;5044469;28;20056;-52
2022/07/16 00:55:39;;;;;;;1999.90;999.90;;;;;;;10.27;100.00;99970.59;5040463;28;20045;-52
2022/07/16 00:58:24;;;;;;;1999.90;999.90;;;;;;;10.23;100.00;99968.88;5042622;28;20045;-52
2022/07/16 01:01:09;;;;;;;1999.90;999.90;;;;;;;10.29;100.00;99968.78;5042645;28;20397;-52
2022/07/16 01:03:53;;;;;;;1999.90;999.90;;;;;;;10.42;100.00;99965.91;5043427;28;20041;-52
2022/07/16 01:06:39;;;;;;;1999.90;999.90;;;;;;;10.44;100.00;99972.00;5040712;28;20052;-52
2022/07/16 01:09:25;;;;;;;1999.90;999.90;;;;;;;10.43;100.00;99965.91;5043464;28;20044;-53
2022/07/16 01:12:10;;;;;;;1999.90;999.90;;;;;;;10.38;100.00;99966.88;5042093;28;20049;-52
2022/07/16 01:14:56;;;;;;;1999.90;999.90;;;;;;;10.36;100.00;99974.75;5040803;28;20045;-52
2022/07/16 01:17:40;;;;;;;1999.90;999.90;;;;;;;10.31;100.00;99962.69;5041567;28;20056;-52
2022/07/16 01:20:25;;;;;;;1999.90;999.90;;;;;;;10.39;100.00;99963.34;5041122;28;20049;-53
2022/07/16 01:23:10;;;;;;;1999.90;999.90;;;;;;;10.42;100.00;99974.63;5042920;28;20380;-52
2022/07/16 01:25:55;;;;;;;1999.90;999.90;;;;;;;10.49;100.00;99965.72;5040685;28;20049;-52
2022/07/16 01:28:40;;;;;;;1999.90;999.90;;;;;;;10.43;100.00;99963.28;5041454;28;20084;-52
2022/07/16 01:31:25;;;;;;;1999.90;999.90;;;;;;;10.55;100.00;99961.28;5040901;28;20053;-52
2022/07/16 01:34:27;;;;;;;1999.90;999.90;;;;;;;10.56;100.00;99961.22;5040684;28;20499;-52
2022/07/16 01:37:14;;;;;;;1999.90;999.90;;;;;;;10.51;100.00;99961.34;5047545;28;20076;-52
2022/07/16 01:39:59;;;;;;;1999.90;999.90;;;;;;;10.60;100.00;99956.81;5043831;28;20504;-53
2022/07/16 01:42:43;;;;;;;1999.90;999.90;;;;;;;10.56;100.00;99945.50;5044860;28;20068;-52
2022/07/16 01:45:28;;;;;;;1999.90;999.90;;;;;;;10.72;100.00;99954.75;5046662;28;20476;-53
2022/07/16 01:48:13;;;;;;;1999.90;999.90;;;;;;;10.62;100.00;99945.38;5045867;28;20045;-52
2022/07/16 01:50:59;;;;;;;1999.90;999.90;;;;;;;10.72;100.00;99959.13;5042518;28;20057;-52
2022/07/16 01:53:43;;;;;;;1999.90;999.90;;;;;;;10.74;100.00;99945.09;5046729;28;20044;-52
2022/07/16 01:56:27;;;;;;;1999.90;999.90;;;;;;;10.85;100.00;99952.69;5045303;28;20100;-52
2022/07/16 01:59:11;;;;;;;1999.90;999.90;;;;;;;10.84;100.00;99953.59;5044316;28;20085;-52
2022/07/16 02:01:56;;;;;;;1999.90;999.90;;;;;;;10.79;100.00;99946.72;5046490;28;20045;-52
2022/07/16 02:04:41;;;;;;;1999.90;999.90;;;;;;;10.84;100.00;99942.25;5044548;28;20057;-53
2022/07/16 02:07:26;;;;;;;1999.90;999.90;;;;;;;10.87;100.00;99929.94;5046999;28;20041;-53
2022/07/16 02:10:11;;;;;;;1999.90;999.90;;;;;;;11.00;100.00;99938.38;5045693;28;20045;-53
2022/07/16 02:12:56;;;;;;;1999.90;999.90;;;;;;;10.99;100.00;99929.66;5044351;28;20045;-52
2022/07/16 02:15:40;;;;;;;1999.90;999.90;;;;;;;10.95;100.00;99932.38;5045747;28;20053;-52
2022/07/16 02:18:25;;;;;;;1999.90;999.90;;;;;;;10.92;100.00;99935.06;5044343;28;20376;-52
2022/07/16 02:21:09;;;;;;;1999.90;999.90;;;;;;;10.84;100.00;99919.53;5045423;28;20036;-53
2022/07/16 02:23:54;;;;;;;1999.90;999.90;;;;;;;10.94;100.00;99930.66;5043984;28;20045;-52
2022/07/16 02:26:38;;;;;;;1999.90;999.90;;;;;;;10.97;100.00;99926.19;5045939;28;20419;-53
2022/07/16 02:29:23;;;;;;;1999.90;999.90;;;;;;;10.96;100.00;99924.47;5049912;28;20041;-52
2022/07/16 02:32:07;;;;;;;1999.90;999.90;;;;;;;10.93;100.00;99914.06;5048693;28;20040;-53
2022/07/16 02:34:52;;;;;;;1999.90;999.90;;;;;;;11.02;100.00;99930.44;5047062;28;20045;-53
2022/07/16 02:37:37;;;;;;;1999.90;999.90;;;;;;;11.02;100.00;99925.22;5046019;28;20132;-53
2022/07/16 02:40:22;;;;;;;1999.90;999.90;;;;;;;10.99;100.00;99926.16;5050756;28;20060;-52
2022/07/16 02:43:08;;;;;;;1999.90;999.90;;;;;;;10.99;100.00;99921.78;5049058;28;20068;-52
2022/07/16 02:45:53;;;;;;;1999.90;999.90;;;;;;;11.01;100.00;99913.88;5048497;28;20040;-52
2022/07/16 02:48:37;;;;;;;1999.90;999.90;;;;;;;10.94;100.00;99910.53;5049138;28;20049;-52
2022/07/16 02:51:21;;;;;;;1999.90;999.90;;;;;;;11.04;100.00;99916.41;5049968;28;20476;-52
2022/07/16 02:54:05;;;;;;;1999.90;999.90;;;;;;;11.00;100.00;99918.25;5045763;28;20044;-52
2022/07/16 02:56:50;;;;;;;1999.90;999.90;;;;;;;10.86;100.00;99924.75;5045879;28;20053;-53
2022/07/16 02:59:34;;;;;;;1999.90;999.90;;;;;;;10.76;100.00;99924.97;5044435;28;20053;-53
2022/07/16 03:02:19;;;;;;;1999.90;999.90;;;;;;;10.78;100.00;99914.44;5042904;28;20053;-52
2022/07/16 03:05:03;;;;;;;1999.90;999.90;;;;;;;10.92;100.00;99916.72;5042432;28;20048;-52
2022/07/16 03:07:48;;;;;;;1999.90;999.90;;;;;;;10.98;100.00;99917.44;5042743;28;20045;-52
2022/07/16 03:10:33;;;;;;;1999.90;999.90;;;;;;;11.03;100.00;99906.84;5042854;28;20045;-53
2022/07/16 03:13:17;;;;;;;1999.90;999.90;;;;;;;10.87;100.00;99908.97;5046456;28;20095;-53
2022/07/16 03:16:02;;;;;;;1999.90;999.90;;;;;;;11.05;100.00;99912.03;5043111;28;20061;-52
2022/07/16 03:18:48;;;;;;;1999.90;999.90;;;;;;;10.94;100.00;99925.41;5044940;28;20045;-53
2022/07/16 03:21:32;;;;;;;1999.90;999.90;;;;;;;10.96;100.00;99913.13;5045246;28;20510;-52
2022/07/16 03:24:16;;;;;;;1999.90;999.90;;;;;;;10.88;100.00;99894.97;5043886;28;20559;-52
2022/07/16 03:27:00;;;;;;;1999.90;999.90;;;;;;;11.07;100.00;99915.47;5043240;28;20069;-53
2022/07/16 03:29:45;;;;;;;1999.90;999.90;;;;;;;11.05;100.00;99914.66;5043972;28;20041;-52
2022/07/16 03:32:30;;;;;;;1999.90;999.90;;;;;;;11.06;100.00;99917.25;5043184;28;20045;-53
2022/07/16 03:35:15;;;;;;;1999.90;999.90;;;;;;;11.15;100.00;99906.53;5043629;28;20040;-52
2022/07/16 03:41:03;;;;;;;1999.90;999.90;;;;;;;11.17;100.00;99909.94;5043350;28;20737;-52
2022/07/16 03:43:47;;;;;;;1999.90;999.90;;;;;;;11.09;100.00;99914.56;5046507;28;20048;-53
2022/07/16 03:46:32;;;;;;;1999.90;999.90;;;;;;;11.26;100.00;99902.75;5050873;28;20056;-53
2022/07/16 03:49:16;;;;;;;1999.90;999.90;;;;;;;11.34;100.00;99906.91;5044954;28;20041;-52
2022/07/16 03:52:00;;;;;;;1999.90;999.90;;;;;;;11.30;100.00;99907.88;5050005;28;20053;-52
2022/07/16 03:54:45;;;;;;;1999.90;999.90;;;;;;;11.39;100.00;99906.78;5048399;28;20037;-52
2022/07/16 03:57:29;;;;;;;1999.90;999.90;;;;;;;11.29;100.00;99900.06;5046505;28;20056;-52
2022/07/16 04:00:14;;;;;;;1999.90;999.90;;;;;;;11.47;100.00;99896.94;5047295;28;20037;-53
2022/07/16 04:02:58;;;;;;;1999.90;999.90;;;;;;;11.22;100.00;99860.03;5049239;28;20056;-52
2022/07/16 04:05:42;;;;;;;1999.90;999.90;;;;;;;11.34;100.00;99899.06;5047748;28;20049;-53
2022/07/16 04:08:27;;;;;;;1999.90;999.90;;;;;;;11.41;100.00;99907.63;5046653;28;20052;-53
2022/07/16 04:11:11;;;;;;;1999.90;999.90;;;;;;;11.45;100.00;99904.00;5045238;28;20132;-53
2022/07/16 04:13:55;;;;;;;1999.90;999.90;;;;;;;11.55;100.00;99901.97;5047735;28;20049;-52
2022/07/16 04:16:39;;;;;;;1999.90;999.90;;;;;;;11.73;100.00;99896.19;5046980;28;20049;-52
2022/07/16 04:19:24;;;;;;;1999.90;999.90;;;;;;;11.71;100.00;99892.78;5046051;28;20645;-53
2022/07/16 04:22:09;;;;;;;1999.90;999.90;;;;;;;11.75;100.00;99891.78;5048440;28;20435;-53
2022/07/16 04:24:53;;;;;;;1999.90;999.90;;;;;;;11.75;100.00;99889.16;5046782;28;20092;-53
2022/07/16 04:27:38;;;;;;;1999.90;999.90;;;;;;;11.81;100.00;99888.13;5047896;28;20033;-53
2022/07/16 04:30:22;;;;;;;1999.90;999.90;;;;;;;11.84;100.00;99894.19;5046401;28;20045;-52
2022/07/16 04:33:06;;;;;;;1999.90;999.90;;;;;;;11.85;100.00;99874.03;5047931;28;20053;-53
2022/07/16 04:35:51;;;;;;;1999.90;999.90;;;;;;;11.87;100.00;99894.09;5049371;28;20048;-52
2022/07/16 04:38:35;;;;;;;1999.90;999.90;;;;;;;11.94;100.00;99884.28;5048191;28;20045;-53
2022/07/16 04:41:20;;;;;;;1999.90;999.90;;;;;;;12.06;100.00;99890.94;5046757;28;20048;-53
2022/07/16 04:44:04;;;;;;;1999.90;999.90;;;;;;;12.09;100.00;99888.19;5046653;28;20049;-53
2022/07/16 04:46:49;;;;;;;1999.90;999.90;;;;;;;12.16;100.00;99890.59;5048611;28;20053;-53
2022/07/16 04:49:33;;;;;;;1999.90;999.90;;;;;;;12.12;100.00;99886.38;5045064;28;20575;-53
2022/07/16 04:52:18;;;;;;;1999.90;999.90;;;;;;;12.20;100.00;99873.00;5046038;28;20079;-53
2022/07/16 04:55:03;;;;;;;1999.90;999.90;;;;;;;12.42;100.00;99888.09;5045072;28;20037;-53
2022/07/16 04:57:48;;;;;;;1999.90;999.90;;;;;;;12.38;100.00;99887.31;5046373;28;20049;-53
2022/07/16 05:00:33;;;;;;;1999.90;999.90;;;;;;;12.53;100.00;99888.59;5045032;28;20124;-53
2022/07/16 05:03:17;;;;;;;1999.90;999.90;;;;;;;12.48;100.00;99893.13;5045757;28;20045;-53
2022/07/16 05:06:02;;;;;;;1999.90;999.90;;;;;;;12.52;100.00;99890.38;5044586;28;20053;-53
2022/07/16 05:08:46;;;;;;;1999.90;999.90;;;;;;;12.43;100.00;99881.94;5046910;28;20045;-53
2022/07/16 05:11:31;;;;;;;1999.90;999.90;;;;;;;12.55;100.00;99894.69;5043998;28;20045;-53
2022/07/16 05:14:15;;;;;;;1999.90;999.90;;;;;;;12.59;100.00;99886.66;5046351;28;20045;-53
2022/07/16 05:17:00;;;;;;;1999.90;999.90;;;;;;;12.77;100.00;99893.09;5046866;28;20128;-53
2022/07/16 05:19:44;;;;;;;1999.90;999.90;;;;;;;12.88;100.00;99884.84;5047307;28;20049;-53
2022/07/16 05:22:29;;;;;;;1999.90;999.90;;;;;;;12.88;100.00;99871.69;5046260;28;20136;-53
2022/07/16 05:25:15;;;;;;;1999.90;999.90;;;;;;;12.99;100.00;99877.44;5046279;28;20079;-53
2022/07/16 05:27:59;;;;;;;1999.90;999.90;;;;;;;13.04;100.00;99875.53;5044235;28;20041;-53
2022/07/16 05:30:44;;;;;;;1999.90;999.90;;;;;;;13.36;100.00;99878.84;5043551;28;20056;-53
2022/07/16 05:33:29;;;;;;;1999.90;999.90;;;;;;;13.27;100.00;99882.66;5045874;28;20072;-53
2022/07/16 05:36:14;;;;;;;1999.90;999.90;;;;;;;13.29;100.00;99879.94;5046727;28;20507;-54
2022/07/16 05:38:58;;;;;;;1999.90;999.90;;;;;;;13.41;100.00;99879.53;5043968;28;20040;-53
2022/07/16 05:41:43;;;;;;;1999.90;999.90;;;;;;;13.65;100.00;99872.53;5040137;28;20060;-53
2022/07/16 05:44:27;;;;;;;1999.90;999.90;;;;;;;13.69;100.00;99871.50;5042719;28;20052;-53
2022/07/16 05:47:12;;;;;;;1999.90;999.90;;;;;;;14.09;100.00;99869.16;5042573;28;20053;-53
2022/07/16 05:49:56;;;;;;;1999.90;999.90;;;;;;;14.33;100.00;99870.84;5042641;28;20045;-53
2022/07/16 05:52:41;;;;;;;1999.90;999.90;;;;;;;14.63;100.00;99870.56;5040892;28;20037;-54
2022/07/16 05:55:26;;;;;;;1999.90;999.90;;;;;;;14.51;100.00;99871.91;5041272;28;20049;-53
2022/07/16 05:58:11;;;;;;;1999.90;999.90;;;;;;;14.63;100.00;99865.28;5042170;28;20052;-53
2022/07/16 06:00:55;;;;;;;1999.90;999.90;;;;;;;14.78;100.00;99872.53;5041030;28;20044;-53
2022/07/16 06:03:40;;;;;;;1999.90;999.90;;;;;;;14.96;100.00;99863.03;5043374;28;20053;-54
2022/07/16 06:06:24;;;;;;;1999.90;999.90;;;;;;;15.09;100.00;99868.63;5041425;28;20744;-53
2022/07/16 06:09:09;;;;;;;1999.90;999.90;;;;;;;15.26;100.00;99850.28;5041495;28;20041;-54
2022/07/16 06:11:53;;;;;;;1999.90;999.90;;;;;;;15.08;100.00;99859.00;5041497;28;20464;-53
2022/07/16 06:14:38;;;;;;;1999.90;999.90;;;;;;;15.57;100.00;99854.22;5041992;28;20049;-54
2022/07/16 06:17:23;;;;;;;1999.90;999.90;;;;;;;15.80;100.00;99861.16;5041978;28;20049;-54
2022/07/16 06:20:09;;;;;;;1999.90;999.90;;;;;;;15.50;100.00;99855.41;5040692;28;20049;-54
2022/07/16 06:22:54;;;;;;;1999.90;999.90;;;;;;;15.94;100.00;99852.59;5042509;28;20112;-53
2022/07/16 06:25:40;;;;;;;1999.90;999.90;;;;;;;15.87;100.00;99846.72;5041116;28;20045;-54
2022/07/16 06:28:25;;;;;;;1999.90;999.90;;;;;;;15.96;100.00;99851.59;5041615;28;20097;-53
2022/07/16 06:31:09;;;;;;;1999.90;999.90;;;;;;;16.29;100.00;99838.56;5039229;28;20053;-53
2022/07/16 06:33:54;;;;;;;1999.90;999.90;;;;;;;16.60;100.00;99848.47;5040851;28;20041;-54
2022/07/16 06:36:38;;;;;;;1999.90;999.90;;;;;;;16.69;99.77;99836.59;5040740;28;20060;-53
2022/07/16 06:39:23;;;;;;;1999.90;999.90;;;;;;;16.95;99.52;99843.25;5041289;28;20045;-54
2022/07/16 06:42:07;;;;;;;1999.90;999.90;;;;;;;16.81;97.23;99835.19;5041118;28;20053;-53
2022/07/16 06:44:57;;;;;;;1999.90;999.90;;;;;;;16.66;93.51;99839.41;5042069;28;20354;-54
2022/07/16 06:47:42;;;;;;;1999.90;999.90;;;;;;;16.81;96.87;99837.81;5041008;28;20049;-53
2022/07/16 06:50:27;;;;;;;1999.90;999.90;;;;;;;17.25;91.66;99839.97;5042998;28;20049;-54
2022/07/16 06:53:12;;;;;;;1999.90;999.90;;;;;;;17.70;91.21;99826.09;5039954;28;20053;-54
2022/07/16 06:55:57;;;;;;;1999.90;999.90;;;;;;;17.56;87.10;99833.94;5025089;28;20046;-54
2022/07/16 06:58:41;;;;;;;1999.90;999.90;;;;;;;17.93;89.28;99829.31;5041009;28;20049;-54
2022/07/16 07:01:26;;;;;;;1999.90;999.90;;;;;;;17.95;89.04;99823.00;5040608;28;20041;-54
2022/07/16 07:04:11;;;;;;;1999.90;999.90;;;;;;;17.79;86.68;99815.97;5041341;28;20045;-54
2022/07/16 07:06:55;;;;;;;1999.90;999.90;;;;;;;18.45;85.09;99810.47;5040025;28;20052;-54
2022/07/16 07:09:40;;;;;;;1999.90;999.90;;;;;;;18.58;84.08;99807.97;5039662;28;20045;-55
2022/07/16 07:12:24;;;;;;;1999.90;999.90;;;;;;;18.29;80.41;99799.88;5040675;28;20053;-56
2022/07/16 07:15:09;;;;;;;1999.90;999.90;;;;;;;18.86;82.02;99801.94;5045480;28;20045;-55
2022/07/16 07:17:54;;;;;;;1999.90;999.90;;;;;;;18.78;78.31;99796.22;5047973;28;20052;-54
2022/07/16 07:20:38;;;;;;;1999.90;999.90;;;;;;;19.59;78.05;99794.78;5048382;28;20045;-55
2022/07/16 07:23:23;;;;;;;1999.90;999.90;;;;;;;19.39;76.58;99773.94;5046503;28;20043;-55
2022/07/16 07:26:07;;;;;;;1999.90;999.90;;;;;;;19.82;76.75;99784.53;5049392;28;20037;-55
2022/07/16 07:28:51;;;;;;;1999.90;999.90;;;;;;;20.58;76.79;99786.72;5048409;28;20041;-55
2022/07/16 07:31:36;;;;;;;1999.90;999.90;;;;;;;19.81;71.44;99786.34;5047224;28;20049;-57
2022/07/16 07:34:20;;;;;;;1999.90;999.90;;;;;;;20.58;71.10;99775.22;5074640;28;20448;-56
2022/07/16 07:37:05;;;;;;;1999.90;999.90;;;;;;;20.83;69.41;99777.06;5048260;28;20452;-55
2022/07/16 07:39:49;;;;;;;1999.90;999.90;;;;;;;21.76;68.16;99777.72;5048327;28;20044;-56
2022/07/16 07:42:34;;;;;;;1999.90;999.90;;;;;;;21.78;67.77;99776.66;5046135;28;20050;-56
2022/07/16 07:45:18;;;;;;;1999.90;999.90;;;;;;;22.26;68.35;99776.72;5047612;28;20041;-56
2022/07/16 07:48:04;;;;;;;1999.90;999.90;;;;;;;22.11;65.84;99773.34;5048283;28;20052;-56
2022/07/16 07:50:48;;;;;;;1999.90;999.90;;;;;;;22.09;69.51;99780.59;5047745;28;20045;-57
2022/07/16 07:53:34;;;;;;;1999.90;999.90;;;;;;;21.24;66.55;99772.41;5048504;28;20049;-56
2022/07/16 07:56:18;;;;;;;1999.90;999.90;;;;;;;22.20;68.33;99770.97;5047975;28;20049;-56
2022/07/16 07:59:03;;;;;;;1999.90;999.90;;;;;;;22.64;64.15;99764.97;5041239;28;20049;-56
2022/07/16 08:01:48;;;;;;;1999.90;999.90;;;;;;;21.63;65.53;99780.41;5043512;28;20094;-56
2022/07/16 08:04:35;;;;;;;1999.90;999.90;;;;;;;21.49;65.22;99775.22;5043624;28;20939;-55
2022/07/16 08:07:20;;;;;;;1999.90;999.90;;;;;;;21.78;63.71;99757.13;5044203;28;20044;-59
2022/07/16 08:10:06;;;;;;;1999.90;999.90;;;;;;;22.43;62.08;99761.28;5043671;28;20056;-57
2022/07/16 08:12:51;;;;;;;1999.90;999.90;;;;;;;23.16;59.51;99763.69;5042804;28;20076;-57
2022/07/16 08:15:35;;;;;;;1999.90;999.90;;;;;;;23.20;59.08;99750.94;5043828;28;20057;-57
2022/07/16 08:18:19;;;;;;;1999.90;999.90;;;;;;;22.77;61.65;99756.91;5044696;28;20044;-57
2022/07/16 08:21:04;;;;;;;1999.90;999.90;;;;;;;21.90;62.14;99751.78;5042009;28;20049;-57
2022/07/16 08:26:51;;;;;;;1999.90;999.90;;;;;;;21.60;62.26;99760.16;5044303;28;20044;-58
2022/07/16 08:29:35;;;;;;;1999.90;999.90;;;;;;;21.78;62.56;99767.81;5045367;28;20049;-56
2022/07/16 08:32:20;;;;;;;1999.90;999.90;;;;;;;22.33;60.09;99767.31;5043291;28;20056;-57
2022/07/16 08:35:05;;;;;;;1999.90;999.90;;;;;;;23.13;58.92;99749.72;5042683;28;20041;-59
2022/07/16 08:37:50;;;;;;;1999.90;999.90;;;;;;;23.10;57.30;99750.78;5043322;28;20056;-57
2022/07/16 08:40:40;;;;;;;1999.90;999.90;;;;;;;24.06;56.01;99744.94;5041631;28;20057;-57
2022/07/16 08:43:25;;;;;;;1999.90;999.90;;;;;;;23.88;59.39;99746.44;5042911;28;20056;-58
2022/07/16 08:46:10;;;;;;;1999.90;999.90;;;;;;;23.34;59.15;99753.38;5046406;28;20037;-57
2022/07/16 08:48:56;;;;;;;1999.90;999.90;;;;;;;22.55;59.12;99745.16;5057547;28;20045;-56
2022/07/16 08:51:42;;;;;;;1999.90;999.90;;;;;;;23.16;60.84;99753.00;5043654;28;20048;-57
2022/07/16 08:54:29;;;;;;;1999.90;999.90;;;;;;;22.11;60.22;99749.34;5030476;28;20699;-57
2022/07/16 08:57:15;;;;;;;1999.90;999.90;;;;;;;21.70;62.23;99755.84;5044825;28;20036;-56
2022/07/16 09:00:00;;;;;;;1999.90;999.90;;;;;;;22.46;59.67;99750.38;5045156;28;20652;-57
2022/07/16 09:02:45;;;;;;;1999.90;999.90;;;;;;;22.55;64.82;99747.00;5046897;28;20048;-57
2022/07/16 09:05:30;;;;;;;1999.90;999.90;;;;;;;22.11;58.53;99744.00;5044289;28;20048;-58
2022/07/16 09:08:19;;;;;;;1999.90;999.90;;;;;;;22.19;60.12;99751.44;5042717;28;20057;-56
2022/07/16 09:11:29;;;;;;;1999.90;999.90;;;;;;;23.52;57.00;99743.03;5045440;28;20598;-58
2022/07/16 09:14:15;;;;;;;1999.90;999.90;;;;;;;25.14;53.63;99751.00;5043368;28;20500;-57
2022/07/16 09:17:01;;;;;;;1999.90;999.90;;;;;;;22.60;58.04;99745.69;5042095;28;20049;-58
2022/07/16 09:19:46;;;;;;;1999.90;999.90;;;;;;;22.03;60.55;99748.19;5045055;28;20072;-57
2022/07/16 09:22:31;;;;;;;1999.90;999.90;;;;;;;21.84;61.49;99748.66;5045612;28;20029;-59
2022/07/16 09:25:16;;;;;;;1999.90;999.90;;;;;;;21.58;58.70;99750.56;5043719;28;20132;-57
2022/07/16 09:28:01;;;;;;;1999.90;999.90;;;;;;;21.32;58.20;99728.41;5041450;28;20045;-57
2022/07/16 09:30:46;;;;;;;1999.90;999.90;;;;;;;22.75;58.97;99733.00;5043634;28;20462;-58
2022/07/16 09:33:31;;;;;;;1999.90;999.90;;;;;;;23.27;55.44;99726.31;5042968;28;20589;-58
2022/07/16 09:36:15;;;;;;;1999.90;999.90;;;;;;;23.84;54.97;99732.47;5044856;28;20041;-57
2022/07/16 09:39:00;;;;;;;1999.90;999.90;;;;;;;24.28;55.66;99727.97;5045587;28;20043;-57
2022/07/16 09:41:47;;;;;;;1999.90;999.90;;;;;;;24.70;49.96;99723.53;5040869;28;20053;-57
2022/07/16 09:44:34;;;;;;;1999.90;999.90;;;;;;;24.00;51.11;99724.03;5042775;28;20076;-56
2022/07/16 09:47:22;;;;;;;1999.90;999.90;;;;;;;;;;5043320;28;20060;-57
2022/07/16 09:50:07;;;;;;;1999.90;999.90;;;;;;;22.76;54.31;99718.69;5060147;28;20580;-57
2022/07/16 09:52:51;;;;;;;1999.90;999.90;;;;;;;23.27;54.79;99717.44;5043799;28;20368;-57
2022/07/16 09:55:54;;;;;;;1999.90;999.90;;;;;;;23.94;55.08;99709.34;5041373;28;20483;-57
2022/07/16 09:58:38;;;;;;;1999.90;999.90;;;;;;;25.56;50.09;99708.03;5040271;28;20041;-58
2022/07/16 10:01:24;;;;;;;1999.90;999.90;;;;;;;24.60;50.30;99703.00;5041588;28;20612;-56
2022/07/16 10:04:09;;;;;;;1999.90;999.90;;;;;;;23.20;50.88;99713.53;5041722;28;20143;-56
2022/07/16 10:06:54;;;;;;;1999.90;999.90;;;;;;;22.99;53.83;99714.25;5040845;28;20436;-58
2022/07/16 10:09:38;;;;;;;1999.90;999.90;;;;;;;22.14;54.89;99703.78;5039722;28;20045;-57
2022/07/16 10:12:24;;;;;;;1999.90;999.90;;;;;;;21.72;57.31;99698.94;5042967;28;20123;-55
2022/07/16 10:15:09;;;;;;;1999.90;999.90;;;;;;;21.84;56.43;99690.91;5041195;28;20463;-57
2022/07/16 10:17:54;;;;;;;1999.90;999.90;;;;;;;21.42;55.85;99690.41;5038822;28;20067;-57
2022/07/16 10:20:39;;;;;;;1999.90;999.90;;;;;;;21.51;56.87;99686.19;5042071;28;20144;-57
2022/07/16 10:23:32;;;;;;;1999.90;999.90;;;;;;;21.68;56.05;99695.66;5042032;28;20048;-57
2022/07/16 10:26:21;;;;;;;1999.90;999.90;;;;;;;21.25;56.12;99704.00;5041310;28;20049;-57
2022/07/16 10:29:06;;;;;;;1999.90;999.90;;;;;;;21.58;55.04;99698.13;5041765;28;20388;-56
2022/07/16 10:35:27;;;;;;;1999.90;999.90;;;;;;;21.95;54.56;99703.44;5054741;28;20479;-56
2022/07/16 10:38:18;;;;;;;1999.90;999.90;;;;;;;21.98;55.91;99686.38;5041385;28;20599;-56
2022/07/16 10:41:15;;;;;;;1999.90;999.90;;;;;;;22.05;55.98;99692.94;5041953;28;20045;-57
2022/07/16 10:44:12;;;;;;;1999.90;999.90;;;;;;;22.37;59.05;99693.22;5040595;28;20488;-57
2022/07/16 10:46:59;;;;;;;1999.90;999.90;;;;;;;22.51;56.66;99681.50;5043147;28;20060;-57
2022/07/16 10:49:45;;;;;;;1999.90;999.90;;;;;;;22.51;60.76;99684.16;5046060;28;20127;-58
2022/07/16 10:52:42;;;;;;;1999.90;999.90;;;;;;;21.86;60.48;99683.63;5034623;28;20040;-59
2022/07/16 10:55:31;;;;;;;1999.90;999.90;;;;;;;21.63;61.30;99684.47;5048262;28;20037;-56
2022/07/16 10:58:22;;;;;;;1999.90;999.90;;;;;;;21.23;60.46;99679.31;5046038;28;20124;-56
2022/07/16 11:01:08;;;;;;;1999.90;999.90;;;;;;;21.40;60.98;99671.00;5046645;28;20536;-56
2022/07/16 11:03:53;;;;;;;1999.90;999.90;;;;;;;21.68;63.50;99669.84;5048278;28;20060;-57
2022/07/16 11:06:40;;;;;;;1999.90;999.90;;;;;;;21.57;59.22;99667.09;5043867;28;20049;-57
2022/07/16 11:09:30;;;;;;;1999.90;999.90;;;;;;;22.06;59.67;99663.47;5047113;28;20045;-57
2022/07/16 11:12:27;;;;;;;1999.90;999.90;;;;;;;22.25;59.65;99680.81;5044673;28;20044;-57
2022/07/16 11:15:12;;;;;;;1999.90;999.90;;;;;;;21.68;62.02;99672.53;5047056;28;20053;-56
2022/07/16 11:17:57;;;;;;;1999.90;999.90;;;;;;;21.02;59.78;99681.69;5045121;28;20052;-58
2022/07/16 11:20:42;;;;;;;1999.90;999.90;;;;;;;20.86;60.25;99689.03;5046002;28;20618;-57
2022/07/16 11:23:27;;;;;;;1999.90;999.90;;;;;;;20.48;59.21;99696.00;5045099;28;20044;-55
2022/07/16 11:26:12;;;;;;;1999.90;999.90;;;;;;;20.45;59.86;99701.53;5046034;28;20051;-57
2022/07/16 11:29:02;;;;;;;1999.90;999.90;;;;;;;20.56;59.75;99695.50;5047175;28;20502;-55
2022/07/16 11:31:48;;;;;;;1999.90;999.90;;;;;;;20.21;61.13;99729.75;5046054;28;20049;-55
2022/07/16 11:34:35;;;;;;;1999.90;999.90;;;;;;;19.89;64.04;99714.13;5046698;28;20907;-56
2022/07/16 11:37:21;;;;;;;1999.90;999.90;;;;;;;19.92;64.97;99721.91;5044949;28;20119;-56
2022/07/16 11:40:06;;;;;;;1999.90;999.90;;;;;;;19.50;64.92;99728.97;5043178;28;20044;-57
2022/07/16 11:42:58;;;;;;;1999.90;999.90;;;;;;;19.40;69.48;99743.75;5043784;28;20041;-56
2022/07/16 11:45:45;;;;;;;1999.90;999.90;;;;;;;18.12;96.92;99779.66;5046098;28;20403;-57
2022/07/16 11:48:36;;;;;;;1999.90;999.90;;;;;;;16.71;100.00;99797.72;5046423;28;20045;-56
2022/07/16 11:51:21;;;;;;;1999.90;999.90;;;;;;;16.33;100.00;99799.63;5045223;28;20920;-56
2022/07/16 11:54:06;;;;;;;1999.90;999.90;;;;;;;16.36;100.00;99810.91;5044335;28;20083;-55
2022/07/16 11:56:51;;;;;;;1999.90;999.90;;;;;;;16.40;100.00;99810.75;5046488;28;20449;-56
2022/07/16 11:59:47;;;;;;;1999.90;999.90;;;;;;;16.99;100.00;99801.63;5044054;28;20442;-56
2022/07/16 12:02:43;;;;;;;1999.90;999.90;;;;;;;17.46;100.00;99806.25;5042217;28;20389;-56
2022/07/16 12:05:29;;;;;;;1999.90;999.90;;;;;;;17.34;100.00;99794.50;5042027;28;20507;-55
2022/07/16 12:08:13;;;;;;;1999.90;999.90;;;;;;;17.77;100.00;99799.31;5040669;28;20041;-55
2022/07/16 12:11:03;;;;;;;1999.90;999.90;;;;;;;17.41;100.00;99802.97;5045092;28;20123;-55
2022/07/16 12:13:53;;;;;;;1999.90;999.90;;;;;;;17.78;100.00;99790.41;5044758;28;20427;-54
2022/07/16 12:16:37;;;;;;;1999.90;999.90;;;;;;;18.49;100.00;99795.25;5045264;28;20053;-55
2022/07/16 12:19:21;;;;;;;1999.90;999.90;;;;;;;18.65;100.00;99794.28;5042080;28;20103;-54
2022/07/16 12:22:06;;;;;;;1999.90;999.90;;;;;;;19.28;100.00;99803.81;5042175;28;20052;-54